sensor_id;sensor_type;location;lat;lon;timestamp;P1;P2;P0
74086;PMS7003;62445;48.406;-4.518;2023-08-01T00:01:30;11.75;10.50;9.25
74086;PMS7003;62445;48.406;-4.518;2023-08-01T00:03:56;12.75;12.50;9.25
74086;PMS7003;62445;48.406;-4.518;2023-08-01T00:06:21;13.00;10.75;8.75
74086;PMS7003;62445;48.406;-4.518;2023-08-01T00:08:47;13.00;11.25;9.50
74086;PMS7003;62445;48.406;-4.518;2023-08-01T00:11:13;11.75;11.75;9.75
74086;PMS7003;62445;48.406;-4.518;2023-08-01T00:13:39;12.00;11.75;8.75
74086;PMS7003;62445;48.406;-4.518;2023-08-01T00:16:05;13.50;13.50;10.50
74086;PMS7003;62445;48.406;-4.518;2023-08-01T00:18:31;12.50;11.75;9.25
74086;PMS7003;62445;48.406;-4.518;2023-08-01T00:20:56;11.00;10.25;8.25
74086;PMS7003;62445;48.406;-4.518;2023-08-01T00:23:23;13.00;9.50;8.25
74086;PMS7003;62445;48.406;-4.518;2023-08-01T00:25:49;10.00;9.75;7.00
74086;PMS7003;62445;48.406;-4.518;2023-08-01T00:28:17;10.75;10.25;9.00
74086;PMS7003;62445;48.406;-4.518;2023-08-01T00:30:43;12.25;11.75;7.75
74086;PMS7003;62445;48.406;-4.518;2023-08-01T00:33:08;10.00;10.00;8.75
74086;PMS7003;62445;48.406;-4.518;2023-08-01T00:35:34;10.00;9.75;7.50
74086;PMS7003;62445;48.406;-4.518;2023-08-01T00:37:59;11.00;10.50;7.00
74086;PMS7003;62445;48.406;-4.518;2023-08-01T00:40:29;6.25;5.50;3.25
74086;PMS7003;62445;48.406;-4.518;2023-08-01T00:42:57;10.75;9.50;8.50
74086;PMS7003;62445;48.406;-4.518;2023-08-01T00:45:23;8.75;8.75;6.50
74086;PMS7003;62445;48.406;-4.518;2023-08-01T00:47:53;8.00;7.00;6.00
74086;PMS7003;62445;48.406;-4.518;2023-08-01T00:50:20;9.00;9.00;8.25
74086;PMS7003;62445;48.406;-4.518;2023-08-01T00:52:47;6.50;6.50;5.25
74086;PMS7003;62445;48.406;-4.518;2023-08-01T00:55:14;8.75;8.75;7.50
74086;PMS7003;62445;48.406;-4.518;2023-08-01T00:57:39;7.00;7.00;6.50
74086;PMS7003;62445;48.406;-4.518;2023-08-01T01:00:05;8.25;8.25;7.00
74086;PMS7003;62445;48.406;-4.518;2023-08-01T01:02:31;10.50;10.50;9.00
74086;PMS7003;62445;48.406;-4.518;2023-08-01T01:04:57;7.75;6.50;6.00
74086;PMS7003;62445;48.406;-4.518;2023-08-01T01:07:22;8.75;8.75;6.00
74086;PMS7003;62445;48.406;-4.518;2023-08-01T01:09:49;9.00;9.00;7.25
74086;PMS7003;62445;48.406;-4.518;2023-08-01T01:12:15;8.25;6.50;4.50
74086;PMS7003;62445;48.406;-4.518;2023-08-01T01:14:41;8.00;8.00;6.00
74086;PMS7003;62445;48.406;-4.518;2023-08-01T01:17:06;8.50;7.50;6.25
74086;PMS7003;62445;48.406;-4.518;2023-08-01T01:19:31;6.25;6.00;4.25
74086;PMS7003;62445;48.406;-4.518;2023-08-01T01:21:57;8.25;7.25;6.00
74086;PMS7003;62445;48.406;-4.518;2023-08-01T01:24:23;7.00;6.00;5.00
74086;PMS7003;62445;48.406;-4.518;2023-08-01T01:26:50;5.25;5.00;4.00
74086;PMS7003;62445;48.406;-4.518;2023-08-01T01:29:17;7.50;6.25;5.00
74086;PMS7003;62445;48.406;-4.518;2023-08-01T01:31:44;7.00;6.00;5.00
74086;PMS7003;62445;48.406;-4.518;2023-08-01T01:34:10;5.50;5.00;4.50
74086;PMS7003;62445;48.406;-4.518;2023-08-01T01:36:36;8.00;6.75;6.00
74086;PMS7003;62445;48.406;-4.518;2023-08-01T01:39:02;10.50;9.25;6.50
74086;PMS7003;62445;48.406;-4.518;2023-08-01T01:41:27;5.25;5.00;4.00
74086;PMS7003;62445;48.406;-4.518;2023-08-01T01:43:53;8.00;5.50;4.50
74086;PMS7003;62445;48.406;-4.518;2023-08-01T01:46:18;5.25;5.25;4.00
74086;PMS7003;62445;48.406;-4.518;2023-08-01T01:48:43;7.00;6.00;5.00
74086;PMS7003;62445;48.406;-4.518;2023-08-01T01:51:09;6.00;6.00;5.50
74086;PMS7003;62445;48.406;-4.518;2023-08-01T01:53:34;6.00;6.00;4.50
74086;PMS7003;62445;48.406;-4.518;2023-08-01T01:56:00;5.25;5.00;4.25
74086;PMS7003;62445;48.406;-4.518;2023-08-01T01:58:25;6.75;6.00;4.75
74086;PMS7003;62445;48.406;-4.518;2023-08-01T02:00:51;5.25;5.25;4.25
74086;PMS7003;62445;48.406;-4.518;2023-08-01T02:03:16;5.25;4.75;4.25
74086;PMS7003;62445;48.406;-4.518;2023-08-01T02:05:42;5.75;5.75;5.00
74086;PMS7003;62445;48.406;-4.518;2023-08-01T02:08:07;6.25;5.00;4.00
74086;PMS7003;62445;48.406;-4.518;2023-08-01T02:10:33;3.75;3.75;3.25
74086;PMS7003;62445;48.406;-4.518;2023-08-01T02:12:58;5.00;4.25;4.00
74086;PMS7003;62445;48.406;-4.518;2023-08-01T02:15:24;6.25;6.00;5.00
74086;PMS7003;62445;48.406;-4.518;2023-08-01T02:17:49;5.50;5.50;4.50
74086;PMS7003;62445;48.406;-4.518;2023-08-01T02:20:15;5.00;4.75;4.25
74086;PMS7003;62445;48.406;-4.518;2023-08-01T02:22:40;5.25;5.25;4.00
74086;PMS7003;62445;48.406;-4.518;2023-08-01T02:25:06;1.75;1.75;1.25
74086;PMS7003;62445;48.406;-4.518;2023-08-01T02:27:31;5.00;5.00;4.25
74086;PMS7003;62445;48.406;-4.518;2023-08-01T02:29:57;4.25;4.25;4.00
74086;PMS7003;62445;48.406;-4.518;2023-08-01T02:32:22;4.50;4.50;3.75
74086;PMS7003;62445;48.406;-4.518;2023-08-01T02:34:48;6.75;4.00;4.00
74086;PMS7003;62445;48.406;-4.518;2023-08-01T02:37:13;5.00;4.00;3.75
74086;PMS7003;62445;48.406;-4.518;2023-08-01T02:39:38;7.00;5.00;3.50
74086;PMS7003;62445;48.406;-4.518;2023-08-01T02:42:04;4.00;4.00;4.00
74086;PMS7003;62445;48.406;-4.518;2023-08-01T02:44:29;4.25;4.25;4.25
74086;PMS7003;62445;48.406;-4.518;2023-08-01T02:46:55;4.50;4.50;3.75
74086;PMS7003;62445;48.406;-4.518;2023-08-01T02:49:21;4.00;3.75;3.00
74086;PMS7003;62445;48.406;-4.518;2023-08-01T02:51:47;3.75;3.00;2.50
74086;PMS7003;62445;48.406;-4.518;2023-08-01T02:54:12;4.00;4.00;3.00
74086;PMS7003;62445;48.406;-4.518;2023-08-01T02:56:38;4.00;4.00;3.00
74086;PMS7003;62445;48.406;-4.518;2023-08-01T02:59:06;4.50;4.25;3.50
74086;PMS7003;62445;48.406;-4.518;2023-08-01T03:01:33;4.00;4.00;3.00
74086;PMS7003;62445;48.406;-4.518;2023-08-01T03:04:00;3.75;3.75;3.50
74086;PMS7003;62445;48.406;-4.518;2023-08-01T03:06:25;4.25;4.00;3.50
74086;PMS7003;62445;48.406;-4.518;2023-08-01T03:08:51;6.00;5.00;3.25
74086;PMS7003;62445;48.406;-4.518;2023-08-01T03:11:16;3.50;3.00;3.00
74086;PMS7003;62445;48.406;-4.518;2023-08-01T03:13:42;4.00;3.00;3.00
74086;PMS7003;62445;48.406;-4.518;2023-08-01T03:16:07;4.00;4.00;3.75
74086;PMS7003;62445;48.406;-4.518;2023-08-01T03:18:33;3.50;2.00;1.75
74086;PMS7003;62445;48.406;-4.518;2023-08-01T03:20:59;4.00;4.00;3.00
74086;PMS7003;62445;48.406;-4.518;2023-08-01T03:23:24;3.00;3.00;2.75
74086;PMS7003;62445;48.406;-4.518;2023-08-01T03:25:50;4.25;3.00;3.00
74086;PMS7003;62445;48.406;-4.518;2023-08-01T03:28:15;4.00;3.00;2.75
74086;PMS7003;62445;48.406;-4.518;2023-08-01T03:30:40;3.00;3.00;3.00
74086;PMS7003;62445;48.406;-4.518;2023-08-01T03:33:06;3.00;3.00;2.00
74086;PMS7003;62445;48.406;-4.518;2023-08-01T03:35:31;2.75;2.75;2.75
74086;PMS7003;62445;48.406;-4.518;2023-08-01T03:37:57;3.00;3.00;2.75
74086;PMS7003;62445;48.406;-4.518;2023-08-01T03:40:23;3.00;3.00;2.50
74086;PMS7003;62445;48.406;-4.518;2023-08-01T03:42:48;5.00;3.75;3.00
74086;PMS7003;62445;48.406;-4.518;2023-08-01T03:45:14;4.00;2.25;2.00
74086;PMS7003;62445;48.406;-4.518;2023-08-01T03:47:39;2.50;2.00;2.00
74086;PMS7003;62445;48.406;-4.518;2023-08-01T03:50:05;3.25;3.25;3.00
74086;PMS7003;62445;48.406;-4.518;2023-08-01T03:52:30;3.00;3.00;2.75
74086;PMS7003;62445;48.406;-4.518;2023-08-01T03:54:56;3.50;3.50;2.75
74086;PMS7003;62445;48.406;-4.518;2023-08-01T03:57:21;2.25;2.00;2.00
74086;PMS7003;62445;48.406;-4.518;2023-08-01T03:59:47;3.75;3.25;2.50
74086;PMS7003;62445;48.406;-4.518;2023-08-01T04:02:12;1.50;1.50;1.00
74086;PMS7003;62445;48.406;-4.518;2023-08-01T04:04:38;4.00;3.00;2.50
74086;PMS7003;62445;48.406;-4.518;2023-08-01T04:07:03;3.75;2.00;2.00
74086;PMS7003;62445;48.406;-4.518;2023-08-01T04:09:29;3.50;3.50;2.25
74086;PMS7003;62445;48.406;-4.518;2023-08-01T04:11:54;3.00;3.00;2.75
74086;PMS7003;62445;48.406;-4.518;2023-08-01T04:14:20;3.00;3.00;2.50
74086;PMS7003;62445;48.406;-4.518;2023-08-01T04:16:45;3.00;3.00;2.00
74086;PMS7003;62445;48.406;-4.518;2023-08-01T04:19:11;2.50;2.50;2.50
74086;PMS7003;62445;48.406;-4.518;2023-08-01T04:21:36;2.75;2.75;2.75
74086;PMS7003;62445;48.406;-4.518;2023-08-01T04:24:02;3.00;3.00;2.75
74086;PMS7003;62445;48.406;-4.518;2023-08-01T04:26:30;3.00;3.00;2.25
74086;PMS7003;62445;48.406;-4.518;2023-08-01T04:28:58;2.00;2.00;2.00
74086;PMS7003;62445;48.406;-4.518;2023-08-01T04:31:23;3.00;3.00;3.00
74086;PMS7003;62445;48.406;-4.518;2023-08-01T04:33:49;2.50;2.25;2.00
74086;PMS7003;62445;48.406;-4.518;2023-08-01T04:36:14;2.75;2.75;2.00
74086;PMS7003;62445;48.406;-4.518;2023-08-01T04:38:40;5.00;2.00;2.00
74086;PMS7003;62445;48.406;-4.518;2023-08-01T04:41:05;2.75;2.00;2.00
74086;PMS7003;62445;48.406;-4.518;2023-08-01T04:43:30;2.75;2.00;1.25
74086;PMS7003;62445;48.406;-4.518;2023-08-01T04:45:56;3.00;2.00;2.00
74086;PMS7003;62445;48.406;-4.518;2023-08-01T04:48:21;2.75;2.00;2.00
74086;PMS7003;62445;48.406;-4.518;2023-08-01T04:50:47;3.00;3.00;2.00
74086;PMS7003;62445;48.406;-4.518;2023-08-01T04:53:12;3.00;2.00;2.00
74086;PMS7003;62445;48.406;-4.518;2023-08-01T04:55:38;4.00;2.00;1.75
74086;PMS7003;62445;48.406;-4.518;2023-08-01T04:58:03;2.00;2.00;2.00
74086;PMS7003;62445;48.406;-4.518;2023-08-01T05:00:28;3.25;3.00;2.25
74086;PMS7003;62445;48.406;-4.518;2023-08-01T05:02:54;1.25;1.00;0.00
74086;PMS7003;62445;48.406;-4.518;2023-08-01T05:05:19;2.00;2.00;2.00
74086;PMS7003;62445;48.406;-4.518;2023-08-01T05:07:45;3.00;2.25;2.00
74086;PMS7003;62445;48.406;-4.518;2023-08-01T05:10:10;2.25;2.25;1.50
74086;PMS7003;62445;48.406;-4.518;2023-08-01T05:12:35;2.75;2.75;2.00
74086;PMS7003;62445;48.406;-4.518;2023-08-01T05:15:01;2.00;2.00;1.25
74086;PMS7003;62445;48.406;-4.518;2023-08-01T05:17:26;2.00;2.00;1.75
74086;PMS7003;62445;48.406;-4.518;2023-08-01T05:19:52;2.00;2.00;1.75
74086;PMS7003;62445;48.406;-4.518;2023-08-01T05:22:17;3.00;2.25;2.00
74086;PMS7003;62445;48.406;-4.518;2023-08-01T05:24:42;2.50;1.75;1.50
74086;PMS7003;62445;48.406;-4.518;2023-08-01T05:27:08;2.25;2.25;2.00
74086;PMS7003;62445;48.406;-4.518;2023-08-01T05:29:33;1.75;1.75;1.00
74086;PMS7003;62445;48.406;-4.518;2023-08-01T05:31:59;1.75;1.75;1.50
74086;PMS7003;62445;48.406;-4.518;2023-08-01T05:34:24;2.50;2.50;2.00
74086;PMS7003;62445;48.406;-4.518;2023-08-01T05:36:49;4.00;3.00;3.00
74086;PMS7003;62445;48.406;-4.518;2023-08-01T05:39:15;4.00;3.00;3.00
74086;PMS7003;62445;48.406;-4.518;2023-08-01T05:41:41;1.50;1.25;1.00
74086;PMS7003;62445;48.406;-4.518;2023-08-01T05:44:07;2.25;2.25;2.00
74086;PMS7003;62445;48.406;-4.518;2023-08-01T05:46:33;3.00;1.75;1.00
74086;PMS7003;62445;48.406;-4.518;2023-08-01T05:48:58;2.00;2.00;2.00
74086;PMS7003;62445;48.406;-4.518;2023-08-01T05:51:24;2.25;2.25;1.75
74086;PMS7003;62445;48.406;-4.518;2023-08-01T05:53:49;1.00;1.00;1.00
74086;PMS7003;62445;48.406;-4.518;2023-08-01T05:56:14;2.00;2.00;1.50
74086;PMS7003;62445;48.406;-4.518;2023-08-01T05:58:40;4.00;2.75;2.00
74086;PMS7003;62445;48.406;-4.518;2023-08-01T06:01:05;1.50;1.50;1.00
74086;PMS7003;62445;48.406;-4.518;2023-08-01T06:03:31;2.25;2.25;1.75
74086;PMS7003;62445;48.406;-4.518;2023-08-01T06:05:56;3.50;3.00;2.50
74086;PMS7003;62445;48.406;-4.518;2023-08-01T06:08:22;3.75;2.00;2.00
74086;PMS7003;62445;48.406;-4.518;2023-08-01T06:10:47;2.50;2.00;2.00
74086;PMS7003;62445;48.406;-4.518;2023-08-01T06:13:13;2.50;2.00;1.25
74086;PMS7003;62445;48.406;-4.518;2023-08-01T06:15:38;2.00;2.00;2.00
74086;PMS7003;62445;48.406;-4.518;2023-08-01T06:18:03;2.75;2.75;2.50
74086;PMS7003;62445;48.406;-4.518;2023-08-01T06:20:29;2.25;2.25;2.00
74086;PMS7003;62445;48.406;-4.518;2023-08-01T06:22:54;3.00;1.75;1.25
74086;PMS7003;62445;48.406;-4.518;2023-08-01T06:25:20;3.00;1.75;1.00
74086;PMS7003;62445;48.406;-4.518;2023-08-01T06:27:45;1.50;1.50;1.25
74086;PMS7003;62445;48.406;-4.518;2023-08-01T06:30:11;2.75;2.00;2.00
74086;PMS7003;62445;48.406;-4.518;2023-08-01T06:32:36;2.75;2.50;2.00
74086;PMS7003;62445;48.406;-4.518;2023-08-01T06:35:02;3.00;2.00;2.00
74086;PMS7003;62445;48.406;-4.518;2023-08-01T06:37:28;2.00;2.00;2.00
74086;PMS7003;62445;48.406;-4.518;2023-08-01T06:39:54;3.00;3.00;2.00
74086;PMS7003;62445;48.406;-4.518;2023-08-01T06:42:19;3.50;3.00;2.00
74086;PMS7003;62445;48.406;-4.518;2023-08-01T06:44:45;1.75;1.75;1.50
74086;PMS7003;62445;48.406;-4.518;2023-08-01T06:47:11;1.50;1.50;1.25
74086;PMS7003;62445;48.406;-4.518;2023-08-01T06:49:36;2.75;2.75;1.50
74086;PMS7003;62445;48.406;-4.518;2023-08-01T06:52:02;1.25;1.25;1.00
74086;PMS7003;62445;48.406;-4.518;2023-08-01T06:54:27;2.75;2.75;2.00
74086;PMS7003;62445;48.406;-4.518;2023-08-01T06:56:52;4.25;4.00;2.00
74086;PMS7003;62445;48.406;-4.518;2023-08-01T06:59:18;3.00;3.00;2.75
74086;PMS7003;62445;48.406;-4.518;2023-08-01T07:01:43;2.50;2.50;2.00
74086;PMS7003;62445;48.406;-4.518;2023-08-01T07:04:09;3.00;3.00;2.00
74086;PMS7003;62445;48.406;-4.518;2023-08-01T07:06:35;3.00;3.00;2.00
74086;PMS7003;62445;48.406;-4.518;2023-08-01T07:09:01;2.00;2.00;2.00
74086;PMS7003;62445;48.406;-4.518;2023-08-01T07:11:26;2.00;2.00;1.00
74086;PMS7003;62445;48.406;-4.518;2023-08-01T07:13:52;2.00;1.50;1.25
74086;PMS7003;62445;48.406;-4.518;2023-08-01T07:16:17;2.00;2.00;2.00
74086;PMS7003;62445;48.406;-4.518;2023-08-01T07:18:42;2.75;2.00;1.25
74086;PMS7003;62445;48.406;-4.518;2023-08-01T07:21:08;2.00;2.00;1.50
74086;PMS7003;62445;48.406;-4.518;2023-08-01T07:23:34;1.25;1.25;1.00
74086;PMS7003;62445;48.406;-4.518;2023-08-01T07:26:00;1.00;1.00;0.75
74086;PMS7003;62445;48.406;-4.518;2023-08-01T07:28:26;3.00;3.00;3.00
74086;PMS7003;62445;48.406;-4.518;2023-08-01T07:30:58;3.00;2.00;1.75
74086;PMS7003;62445;48.406;-4.518;2023-08-01T07:33:24;2.75;2.75;2.00
74086;PMS7003;62445;48.406;-4.518;2023-08-01T07:35:50;2.75;2.75;2.00
74086;PMS7003;62445;48.406;-4.518;2023-08-01T07:38:15;2.25;2.25;2.00
74086;PMS7003;62445;48.406;-4.518;2023-08-01T07:40:41;6.50;2.75;2.50
74086;PMS7003;62445;48.406;-4.518;2023-08-01T07:43:06;2.75;2.25;2.00
74086;PMS7003;62445;48.406;-4.518;2023-08-01T07:45:34;4.50;3.50;3.00
74086;PMS7003;62445;48.406;-4.518;2023-08-01T07:48:00;4.00;3.75;3.00
74086;PMS7003;62445;48.406;-4.518;2023-08-01T07:50:26;4.25;3.00;2.00
74086;PMS7003;62445;48.406;-4.518;2023-08-01T07:52:52;4.00;3.00;2.00
74086;PMS7003;62445;48.406;-4.518;2023-08-01T07:55:17;3.50;3.00;2.00
74086;PMS7003;62445;48.406;-4.518;2023-08-01T07:57:43;3.50;3.50;3.00
74086;PMS7003;62445;48.406;-4.518;2023-08-01T08:00:09;4.00;4.00;2.25
74086;PMS7003;62445;48.406;-4.518;2023-08-01T08:02:35;3.00;3.00;2.00
74086;PMS7003;62445;48.406;-4.518;2023-08-01T08:05:01;4.00;3.00;2.25
74086;PMS7003;62445;48.406;-4.518;2023-08-01T08:07:26;4.25;4.00;2.25
74086;PMS7003;62445;48.406;-4.518;2023-08-01T08:09:52;4.75;3.50;3.00
74086;PMS7003;62445;48.406;-4.518;2023-08-01T08:12:20;5.00;4.00;3.00
74086;PMS7003;62445;48.406;-4.518;2023-08-01T08:14:45;3.75;2.75;2.00
74086;PMS7003;62445;48.406;-4.518;2023-08-01T08:17:11;4.00;4.00;3.00
74086;PMS7003;62445;48.406;-4.518;2023-08-01T08:19:36;5.00;4.25;3.00
74086;PMS7003;62445;48.406;-4.518;2023-08-01T08:22:02;3.25;3.25;3.00
74086;PMS7003;62445;48.406;-4.518;2023-08-01T08:24:28;2.50;2.00;2.00
74086;PMS7003;62445;48.406;-4.518;2023-08-01T08:26:53;2.50;2.50;2.00
74086;PMS7003;62445;48.406;-4.518;2023-08-01T08:29:19;5.00;4.00;3.00
74086;PMS7003;62445;48.406;-4.518;2023-08-01T08:31:44;1.00;0.00;0.00
74086;PMS7003;62445;48.406;-4.518;2023-08-01T08:34:09;6.50;3.00;2.00
74086;PMS7003;62445;48.406;-4.518;2023-08-01T08:36:35;3.75;2.00;2.00
74086;PMS7003;62445;48.406;-4.518;2023-08-01T08:39:00;5.00;4.25;3.50
74086;PMS7003;62445;48.406;-4.518;2023-08-01T08:41:27;2.25;2.25;2.00
74086;PMS7003;62445;48.406;-4.518;2023-08-01T08:43:55;4.00;3.50;2.75
74086;PMS7003;62445;48.406;-4.518;2023-08-01T08:46:23;3.50;3.00;2.25
74086;PMS7003;62445;48.406;-4.518;2023-08-01T08:48:53;7.25;4.75;3.25
74086;PMS7003;62445;48.406;-4.518;2023-08-01T08:51:23;4.00;4.00;3.00
74086;PMS7003;62445;48.406;-4.518;2023-08-01T08:53:53;5.00;3.00;3.00
74086;PMS7003;62445;48.406;-4.518;2023-08-01T08:56:19;5.75;5.75;4.00
74086;PMS7003;62445;48.406;-4.518;2023-08-01T08:58:45;4.00;4.00;3.00
74086;PMS7003;62445;48.406;-4.518;2023-08-01T09:01:12;3.00;3.00;2.25
74086;PMS7003;62445;48.406;-4.518;2023-08-01T09:03:38;4.00;4.00;3.00
74086;PMS7003;62445;48.406;-4.518;2023-08-01T09:06:04;4.00;3.00;3.00
74086;PMS7003;62445;48.406;-4.518;2023-08-01T09:08:36;4.00;2.00;2.00
74086;PMS7003;62445;48.406;-4.518;2023-08-01T09:11:03;4.25;3.50;2.50
74086;PMS7003;62445;48.406;-4.518;2023-08-01T09:13:29;3.00;3.00;2.00
74086;PMS7003;62445;48.406;-4.518;2023-08-01T09:15:55;3.75;3.00;2.75
74086;PMS7003;62445;48.406;-4.518;2023-08-01T09:18:21;3.75;3.25;2.25
74086;PMS7003;62445;48.406;-4.518;2023-08-01T09:20:47;4.00;3.00;2.00
74086;PMS7003;62445;48.406;-4.518;2023-08-01T09:23:15;5.25;4.00;2.00
74086;PMS7003;62445;48.406;-4.518;2023-08-01T09:25:42;2.25;2.25;1.50
74086;PMS7003;62445;48.406;-4.518;2023-08-01T09:28:18;3.25;2.00;2.00
74086;PMS7003;62445;48.406;-4.518;2023-08-01T09:33:12;4.25;3.75;2.25
74086;PMS7003;62445;48.406;-4.518;2023-08-01T09:35:38;5.50;5.50;3.00
74086;PMS7003;62445;48.406;-4.518;2023-08-01T09:38:04;5.00;4.00;3.00
74086;PMS7003;62445;48.406;-4.518;2023-08-01T09:40:39;6.00;5.00;3.00
74086;PMS7003;62445;48.406;-4.518;2023-08-01T09:43:05;5.75;4.00;3.00
74086;PMS7003;62445;48.406;-4.518;2023-08-01T09:45:31;5.25;4.25;3.50
74086;PMS7003;62445;48.406;-4.518;2023-08-01T09:47:56;4.50;4.00;2.75
74086;PMS7003;62445;48.406;-4.518;2023-08-01T09:50:22;2.75;2.75;2.00
74086;PMS7003;62445;48.406;-4.518;2023-08-01T09:52:49;5.25;4.00;3.00
74086;PMS7003;62445;48.406;-4.518;2023-08-01T09:58:15;4.25;4.25;3.50
74086;PMS7003;62445;48.406;-4.518;2023-08-01T10:00:43;3.25;3.25;2.75
74086;PMS7003;62445;48.406;-4.518;2023-08-01T10:03:09;3.25;3.00;2.00
74086;PMS7003;62445;48.406;-4.518;2023-08-01T10:05:34;4.25;3.00;2.25
74086;PMS7003;62445;48.406;-4.518;2023-08-01T10:08:02;4.00;3.25;3.00
74086;PMS7003;62445;48.406;-4.518;2023-08-01T10:10:28;3.75;3.75;2.75
74086;PMS7003;62445;48.406;-4.518;2023-08-01T10:12:54;5.25;3.75;3.00
74086;PMS7003;62445;48.406;-4.518;2023-08-01T10:15:21;4.00;3.00;3.00
74086;PMS7003;62445;48.406;-4.518;2023-08-01T10:17:46;4.50;3.50;2.00
74086;PMS7003;62445;48.406;-4.518;2023-08-01T10:20:12;5.25;3.25;3.00
74086;PMS7003;62445;48.406;-4.518;2023-08-01T10:22:40;4.00;4.00;2.75
74086;PMS7003;62445;48.406;-4.518;2023-08-01T10:25:07;2.50;2.00;2.00
74086;PMS7003;62445;48.406;-4.518;2023-08-01T10:27:35;2.00;2.00;1.25
74086;PMS7003;62445;48.406;-4.518;2023-08-01T10:30:02;4.25;4.00;3.00
74086;PMS7003;62445;48.406;-4.518;2023-08-01T10:32:38;3.25;3.25;2.75
74086;PMS7003;62445;48.406;-4.518;2023-08-01T10:35:05;5.25;3.50;3.00
74086;PMS7003;62445;48.406;-4.518;2023-08-01T10:37:44;5.25;5.00;3.00
74086;PMS7003;62445;48.406;-4.518;2023-08-01T10:40:13;3.00;3.00;2.00
74086;PMS7003;62445;48.406;-4.518;2023-08-01T10:42:42;4.75;4.00;2.50
74086;PMS7003;62445;48.406;-4.518;2023-08-01T10:45:22;5.00;4.00;2.00
74086;PMS7003;62445;48.406;-4.518;2023-08-01T10:47:51;2.75;2.50;1.50
74086;PMS7003;62445;48.406;-4.518;2023-08-01T10:50:17;4.00;2.75;2.00
74086;PMS7003;62445;48.406;-4.518;2023-08-01T10:52:43;3.00;3.00;2.00
74086;PMS7003;62445;48.406;-4.518;2023-08-01T10:55:10;3.50;3.00;2.00
74086;PMS7003;62445;48.406;-4.518;2023-08-01T10:57:36;3.75;3.25;2.50
74086;PMS7003;62445;48.406;-4.518;2023-08-01T11:00:04;4.75;4.00;3.00
74086;PMS7003;62445;48.406;-4.518;2023-08-01T11:02:34;3.75;3.00;2.00
74086;PMS7003;62445;48.406;-4.518;2023-08-01T11:05:01;3.00;2.25;2.00
74086;PMS7003;62445;48.406;-4.518;2023-08-01T11:07:31;3.50;3.50;2.75
74086;PMS7003;62445;48.406;-4.518;2023-08-01T11:10:15;3.00;3.00;2.75
74086;PMS7003;62445;48.406;-4.518;2023-08-01T11:12:41;4.00;3.75;2.00
74086;PMS7003;62445;48.406;-4.518;2023-08-01T11:15:09;3.00;3.00;2.00
74086;PMS7003;62445;48.406;-4.518;2023-08-01T11:17:36;3.50;3.00;2.00
74086;PMS7003;62445;48.406;-4.518;2023-08-01T11:20:04;3.00;2.75;2.25
74086;PMS7003;62445;48.406;-4.518;2023-08-01T11:22:31;5.00;3.00;2.00
74086;PMS7003;62445;48.406;-4.518;2023-08-01T11:24:56;2.00;2.00;1.00
74086;PMS7003;62445;48.406;-4.518;2023-08-01T11:27:24;3.25;3.00;2.00
74086;PMS7003;62445;48.406;-4.518;2023-08-01T11:29:51;3.25;3.25;2.50
74086;PMS7003;62445;48.406;-4.518;2023-08-01T11:32:17;3.50;2.50;2.00
74086;PMS7003;62445;48.406;-4.518;2023-08-01T11:34:42;3.25;3.25;2.00
74086;PMS7003;62445;48.406;-4.518;2023-08-01T11:37:17;3.00;3.00;2.25
74086;PMS7003;62445;48.406;-4.518;2023-08-01T11:39:45;5.00;4.00;3.00
74086;PMS7003;62445;48.406;-4.518;2023-08-01T11:42:15;4.00;3.00;2.00
74086;PMS7003;62445;48.406;-4.518;2023-08-01T11:44:42;3.00;3.00;2.25
74086;PMS7003;62445;48.406;-4.518;2023-08-01T11:47:11;4.00;2.75;2.00
74086;PMS7003;62445;48.406;-4.518;2023-08-01T11:49:47;4.00;3.00;3.00
74086;PMS7003;62445;48.406;-4.518;2023-08-01T11:52:32;2.75;2.75;2.00
74086;PMS7003;62445;48.406;-4.518;2023-08-01T11:54:57;5.00;5.00;3.75
74086;PMS7003;62445;48.406;-4.518;2023-08-01T11:57:22;6.00;4.00;2.75
74086;PMS7003;62445;48.406;-4.518;2023-08-01T11:59:49;4.00;4.00;3.00
74086;PMS7003;62445;48.406;-4.518;2023-08-01T12:02:23;3.00;3.00;2.75
74086;PMS7003;62445;48.406;-4.518;2023-08-01T12:04:49;4.00;2.00;2.00
74086;PMS7003;62445;48.406;-4.518;2023-08-01T12:07:16;2.00;2.00;2.00
74086;PMS7003;62445;48.406;-4.518;2023-08-01T12:09:42;4.00;4.00;3.00
74086;PMS7003;62445;48.406;-4.518;2023-08-01T12:12:08;3.00;3.00;2.50
74086;PMS7003;62445;48.406;-4.518;2023-08-01T12:14:38;7.00;3.25;2.50
74086;PMS7003;62445;48.406;-4.518;2023-08-01T12:17:05;2.25;2.25;1.50
74086;PMS7003;62445;48.406;-4.518;2023-08-01T12:19:31;3.00;3.00;2.00
74086;PMS7003;62445;48.406;-4.518;2023-08-01T12:21:58;2.00;2.00;2.00
74086;PMS7003;62445;48.406;-4.518;2023-08-01T12:24:24;2.25;2.25;2.00
74086;PMS7003;62445;48.406;-4.518;2023-08-01T12:26:49;6.50;3.50;2.00
74086;PMS7003;62445;48.406;-4.518;2023-08-01T12:29:15;5.00;3.00;2.00
74086;PMS7003;62445;48.406;-4.518;2023-08-01T12:31:40;4.00;2.50;2.00
74086;PMS7003;62445;48.406;-4.518;2023-08-01T12:34:06;3.25;3.25;2.00
74086;PMS7003;62445;48.406;-4.518;2023-08-01T12:36:31;3.25;3.25;2.00
74086;PMS7003;62445;48.406;-4.518;2023-08-01T12:38:57;3.75;3.75;3.00
74086;PMS7003;62445;48.406;-4.518;2023-08-01T12:41:22;3.00;3.00;2.00
74086;PMS7003;62445;48.406;-4.518;2023-08-01T12:43:47;5.25;3.25;2.00
74086;PMS7003;62445;48.406;-4.518;2023-08-01T12:46:13;2.75;2.50;2.00
74086;PMS7003;62445;48.406;-4.518;2023-08-01T12:48:38;3.00;2.00;2.00
74086;PMS7003;62445;48.406;-4.518;2023-08-01T12:51:04;3.00;2.50;2.00
74086;PMS7003;62445;48.406;-4.518;2023-08-01T12:53:29;5.75;2.25;1.25
74086;PMS7003;62445;48.406;-4.518;2023-08-01T12:55:55;4.00;3.00;3.00
74086;PMS7003;62445;48.406;-4.518;2023-08-01T12:58:20;3.00;2.50;1.00
74086;PMS7003;62445;48.406;-4.518;2023-08-01T13:00:46;3.00;3.00;3.00
74086;PMS7003;62445;48.406;-4.518;2023-08-01T13:03:11;4.00;3.00;2.50
74086;PMS7003;62445;48.406;-4.518;2023-08-01T13:05:38;3.00;2.00;2.00
74086;PMS7003;62445;48.406;-4.518;2023-08-01T13:08:04;2.00;2.00;1.75
74086;PMS7003;62445;48.406;-4.518;2023-08-01T13:10:31;2.00;2.00;2.00
74086;PMS7003;62445;48.406;-4.518;2023-08-01T13:12:57;2.00;1.75;1.75
74086;PMS7003;62445;48.406;-4.518;2023-08-01T13:15:23;3.75;3.00;2.00
74086;PMS7003;62445;48.406;-4.518;2023-08-01T13:17:49;2.00;2.00;1.75
74086;PMS7003;62445;48.406;-4.518;2023-08-01T13:20:15;4.00;4.00;2.00
74086;PMS7003;62445;48.406;-4.518;2023-08-01T13:22:40;2.25;2.00;1.75
74086;PMS7003;62445;48.406;-4.518;2023-08-01T13:25:05;3.00;2.00;1.25
74086;PMS7003;62445;48.406;-4.518;2023-08-01T13:27:33;3.50;3.50;2.50
74086;PMS7003;62445;48.406;-4.518;2023-08-01T13:30:00;2.00;2.00;1.25
74086;PMS7003;62445;48.406;-4.518;2023-08-01T13:32:27;2.25;2.25;2.00
74086;PMS7003;62445;48.406;-4.518;2023-08-01T13:34:52;4.75;3.75;2.00
74086;PMS7003;62445;48.406;-4.518;2023-08-01T13:37:18;6.50;4.00;3.00
74086;PMS7003;62445;48.406;-4.518;2023-08-01T13:39:43;3.75;2.75;2.00
74086;PMS7003;62445;48.406;-4.518;2023-08-01T13:42:10;2.50;2.50;2.00
74086;PMS7003;62445;48.406;-4.518;2023-08-01T13:44:36;4.00;3.25;2.50
74086;PMS7003;62445;48.406;-4.518;2023-08-01T13:47:02;2.00;2.00;1.00
74086;PMS7003;62445;48.406;-4.518;2023-08-01T13:49:28;5.00;4.00;3.00
74086;PMS7003;62445;48.406;-4.518;2023-08-01T13:51:54;2.50;2.00;2.00
74086;PMS7003;62445;48.406;-4.518;2023-08-01T13:54:19;5.00;5.00;4.00
74086;PMS7003;62445;48.406;-4.518;2023-08-01T13:56:45;6.75;5.50;4.00
74086;PMS7003;62445;48.406;-4.518;2023-08-01T13:59:10;4.00;4.00;2.25
74086;PMS7003;62445;48.406;-4.518;2023-08-01T14:01:36;4.75;3.75;3.00
74086;PMS7003;62445;48.406;-4.518;2023-08-01T14:04:03;4.75;4.75;3.75
74086;PMS7003;62445;48.406;-4.518;2023-08-01T14:06:28;6.25;4.50;3.25
74086;PMS7003;62445;48.406;-4.518;2023-08-01T14:08:54;5.25;4.75;4.00